PWSweather.com
Personal Weather Stations
Station Observations
GIRWX1
Presovsky Kraj, GiraltovceSK

Presovsky KrajGiraltovceSK

Lat: 49.118, Lon: 21.52

Elevation: 630

Station Type: wh1080

http://www.meteogiraltovce.wz.cz/

High Low Average
Temperature 58.5°F14.7°C 45.9°F7.7°C 53.4°F11.9°C
Dew Point 47.4°F8.6°C 39.7°F4.3°C 44.7°F7.1°C
Winds 18.8 mph 30.3 kmh Calm Calm 5.0 mph S8.0 kmh S
Wind Gusts 24.4 mph39.3 kmh 0.7 mph1.1 kmh 8.0 mph12.9 kmh
Humidity 81% 61% 73%
Pressure 30.12 in1020.0 mb 29.98 in1015.2 mb -
Precipitation 0.01 in0.3 mm - -
Hour Temp Dew Point Humidity Winds Wind Gusts Pressure Precip Precip Rate Daily Precip Total
12:00 AM 53.8°F12.1°C 47.4°F8.6°C 79% 7.3 mph S11.7 kmh S 10.7 mph17.2 kmh 29.98 in1015.2 mb 0.00 in0.0 mm 0.00 in0.0 mm 0.00 in0.0 mm
12:05 AM 53.8°F12.1°C 47.4°F8.6°C 79% 9.2 mph S14.8 kmh S 10.7 mph17.2 kmh 29.98 in1015.2 mb 0.00 in0.0 mm 0.00 in0.0 mm 0.00 in0.0 mm
12:10 AM 53.8°F12.1°C 47.3°F8.5°C 79% 8.2 mph SSW13.2 kmh SSW 10.7 mph17.2 kmh 29.98 in1015.2 mb 0.00 in0.0 mm 0.00 in0.0 mm 0.00 in0.0 mm
12:15 AM 53.9°F12.2°C 47.2°F8.4°C 78% 10.8 mph S17.4 kmh S 15.9 mph25.6 kmh 29.98 in1015.2 mb 0.00 in0.0 mm 0.00 in0.0 mm 0.00 in0.0 mm
12:20 AM 54.0°F12.2°C 47.3°F8.5°C 78% 8.0 mph SSE12.9 kmh SSE 15.2 mph24.5 kmh 29.98 in1015.2 mb 0.00 in0.0 mm 0.00 in0.0 mm 0.00 in0.0 mm
12:25 AM 54.0°F12.2°C 47.3°F8.5°C 78% 11.3 mph S18.2 kmh S 19.0 mph30.6 kmh 29.98 in1015.2 mb 0.00 in0.0 mm 0.00 in0.0 mm 0.00 in0.0 mm
12:30 AM 54.0°F12.2°C 47.3°F8.5°C 78% 11.9 mph SE19.2 kmh SE 21.3 mph34.3 kmh 29.98 in1015.2 mb 0.00 in0.0 mm 0.00 in0.0 mm 0.00 in0.0 mm
12:35 AM 54.0°F12.2°C 47.3°F8.5°C 78% 10.6 mph SSE17.1 kmh SSE 15.2 mph24.5 kmh 29.98 in1015.2 mb 0.00 in0.0 mm 0.00 in0.0 mm 0.00 in0.0 mm
12:40 AM 54.0°F12.2°C 47.3°F8.5°C 78% 8.7 mph SSE14.0 kmh SSE 14.5 mph23.3 kmh 29.98 in1015.2 mb 0.00 in0.0 mm 0.00 in0.0 mm 0.00 in0.0 mm
12:45 AM 53.8°F12.1°C 47.1°F8.4°C 78% 7.7 mph S12.4 kmh S 13.6 mph21.9 kmh 29.98 in1015.2 mb 0.00 in0.0 mm 0.00 in0.0 mm 0.00 in0.0 mm
12:50 AM 53.7°F12.1°C 47.0°F8.3°C 78% 7.4 mph SSE11.9 kmh SSE 13.0 mph20.9 kmh 29.98 in1015.2 mb 0.00 in0.0 mm 0.00 in0.0 mm 0.00 in0.0 mm
12:55 AM 53.6°F12.0°C 46.9°F8.3°C 78% 4.9 mph S7.9 kmh S 7.6 mph12.2 kmh 29.99 in1015.6 mb 0.00 in0.0 mm 0.00 in0.0 mm 0.00 in0.0 mm
01:00 AM 53.5°F11.9°C 46.8°F8.2°C 78% 6.6 mph S10.6 kmh S 9.2 mph14.8 kmh 29.99 in1015.6 mb 0.00 in0.0 mm 0.00 in0.0 mm 0.00 in0.0 mm
01:05 AM 53.4°F11.9°C 46.8°F8.2°C 78% 7.3 mph SSE11.7 kmh SSE 9.8 mph15.8 kmh 29.99 in1015.6 mb 0.00 in0.0 mm 0.00 in0.0 mm 0.00 in0.0 mm
01:10 AM 53.3°F11.8°C 46.9°F8.3°C 79% 6.0 mph SSE9.7 kmh SSE 8.3 mph13.4 kmh 29.99 in1015.6 mb 0.00 in0.0 mm 0.00 in0.0 mm 0.00 in0.0 mm
01:15 AM 53.2°F11.8°C 46.8°F8.2°C 79% 5.5 mph SSE8.9 kmh SSE 8.3 mph13.4 kmh 29.99 in1015.6 mb 0.00 in0.0 mm 0.00 in0.0 mm 0.00 in0.0 mm
01:20 AM 53.1°F11.7°C 46.7°F8.2°C 79% 4.9 mph S7.9 kmh S 6.9 mph11.1 kmh 29.99 in1015.6 mb 0.00 in0.0 mm 0.00 in0.0 mm 0.00 in0.0 mm
01:25 AM 52.9°F11.6°C 46.5°F8.1°C 79% 3.7 mph SE6.0 kmh SE 6.0 mph9.7 kmh 29.99 in1015.6 mb 0.00 in0.0 mm 0.00 in0.0 mm 0.00 in0.0 mm
01:30 AM 52.8°F11.6°C 46.4°F8.0°C 79% 4.8 mph S7.7 kmh S 6.9 mph11.1 kmh 29.99 in1015.6 mb 0.00 in0.0 mm 0.00 in0.0 mm 0.00 in0.0 mm
01:35 AM 52.6°F11.4°C 46.5°F8.1°C 80% 6.0 mph S9.7 kmh S 9.8 mph15.8 kmh 30.00 in1015.9 mb 0.00 in0.0 mm 0.00 in0.0 mm 0.00 in0.0 mm
01:40 AM 52.5°F11.4°C 46.5°F8.1°C 80% 4.2 mph S6.8 kmh S 7.6 mph12.2 kmh 30.00 in1015.9 mb 0.00 in0.0 mm 0.00 in0.0 mm 0.00 in0.0 mm
01:45 AM 52.5°F11.4°C 46.5°F8.1°C 80% 5.3 mph SSE8.5 kmh SSE 6.9 mph11.1 kmh 30.00 in1015.9 mb 0.00 in0.0 mm 0.00 in0.0 mm 0.00 in0.0 mm
01:50 AM 52.5°F11.4°C 46.5°F8.1°C 80% 4.4 mph S7.1 kmh S 7.6 mph12.2 kmh 30.00 in1015.9 mb 0.00 in0.0 mm 0.00 in0.0 mm 0.00 in0.0 mm
01:55 AM 52.3°F11.3°C 46.4°F8.0°C 80% 5.9 mph S9.5 kmh S 9.2 mph14.8 kmh 30.00 in1015.9 mb 0.00 in0.0 mm 0.00 in0.0 mm 0.00 in0.0 mm
02:00 AM 52.3°F11.3°C 46.4°F8.0°C 80% 6.2 mph SE10.0 kmh SE 9.2 mph14.8 kmh 30.00 in1015.9 mb 0.00 in0.0 mm 0.00 in0.0 mm 0.00 in0.0 mm
02:05 AM 52.3°F11.3°C 46.4°F8.0°C 80% 5.4 mph SE8.7 kmh SE 7.6 mph12.2 kmh 30.00 in1015.9 mb 0.00 in0.0 mm 0.00 in0.0 mm 0.00 in0.0 mm
02:10 AM 52.2°F11.2°C 46.2°F7.9°C 80% 5.7 mph SE9.2 kmh SE 7.6 mph12.2 kmh 30.00 in1015.9 mb 0.00 in0.0 mm 0.00 in0.0 mm 0.00 in0.0 mm
02:15 AM 52.2°F11.2°C 46.2°F7.9°C 80% 6.9 mph SE11.1 kmh SE 9.8 mph15.8 kmh 30.00 in1015.9 mb 0.00 in0.0 mm 0.00 in0.0 mm 0.00 in0.0 mm
02:20 AM 52.2°F11.2°C 46.2°F7.9°C 80% 6.0 mph SSE9.7 kmh SSE 9.2 mph14.8 kmh 29.99 in1015.6 mb 0.00 in0.0 mm 0.00 in0.0 mm 0.00 in0.0 mm
02:25 AM 52.2°F11.2°C 46.2°F7.9°C 80% 5.8 mph SE9.3 kmh SE 9.2 mph14.8 kmh 29.99 in1015.6 mb 0.00 in0.0 mm 0.00 in0.0 mm 0.00 in0.0 mm
02:30 AM 52.2°F11.2°C 46.2°F7.9°C 80% 6.4 mph SE10.3 kmh SE 9.2 mph14.8 kmh 29.99 in1015.6 mb 0.00 in0.0 mm 0.00 in0.0 mm 0.00 in0.0 mm
02:35 AM 52.2°F11.2°C 46.2°F7.9°C 80% 6.1 mph SSE9.8 kmh SSE 9.2 mph14.8 kmh 30.00 in1015.9 mb 0.00 in0.0 mm 0.00 in0.0 mm 0.00 in0.0 mm
02:40 AM 52.2°F11.2°C 46.2°F7.9°C 80% 5.0 mph S8.0 kmh S 7.6 mph12.2 kmh 30.00 in1015.9 mb 0.00 in0.0 mm 0.00 in0.0 mm 0.00 in0.0 mm
02:45 AM 52.2°F11.2°C 46.2°F7.9°C 80% 5.9 mph SSE9.5 kmh SSE 10.7 mph17.2 kmh 29.99 in1015.6 mb 0.00 in0.0 mm 0.00 in0.0 mm 0.00 in0.0 mm
02:50 AM 52.2°F11.2°C 46.2°F7.9°C 80% 6.2 mph S10.0 kmh S 9.8 mph15.8 kmh 29.99 in1015.6 mb 0.00 in0.0 mm 0.00 in0.0 mm 0.00 in0.0 mm
02:55 AM 52.3°F11.3°C 46.3°F7.9°C 80% 3.5 mph SSE5.6 kmh SSE 6.0 mph9.7 kmh 29.99 in1015.6 mb 0.00 in0.0 mm 0.00 in0.0 mm 0.00 in0.0 mm
03:00 AM 52.2°F11.2°C 46.2°F7.9°C 80% 3.6 mph ESE5.8 kmh ESE 7.6 mph12.2 kmh 29.99 in1015.6 mb 0.00 in0.0 mm 0.00 in0.0 mm 0.00 in0.0 mm
03:05 AM 52.2°F11.2°C 46.2°F7.9°C 80% 4.3 mph S6.9 kmh S 7.6 mph12.2 kmh 29.99 in1015.6 mb 0.00 in0.0 mm 0.00 in0.0 mm 0.00 in0.0 mm
03:10 AM 52.0°F11.1°C 46.0°F7.8°C 80% 5.2 mph S8.4 kmh S 7.6 mph12.2 kmh 29.99 in1015.6 mb 0.00 in0.0 mm 0.00 in0.0 mm 0.00 in0.0 mm
03:15 AM 52.0°F11.1°C 46.0°F7.8°C 80% 3.2 mph SE5.1 kmh SE 5.4 mph8.7 kmh 29.99 in1015.6 mb 0.00 in0.0 mm 0.00 in0.0 mm 0.00 in0.0 mm
03:20 AM 52.0°F11.1°C 46.0°F7.8°C 80% 2.6 mph SE4.2 kmh SE 4.5 mph7.2 kmh 29.99 in1015.6 mb 0.00 in0.0 mm 0.00 in0.0 mm 0.00 in0.0 mm
03:25 AM 52.0°F11.1°C 46.0°F7.8°C 80% 2.0 mph SE3.2 kmh SE 3.1 mph5.0 kmh 30.00 in1015.9 mb 0.00 in0.0 mm 0.00 in0.0 mm 0.00 in0.0 mm
03:30 AM 51.9°F11.1°C 46.0°F7.8°C 80% 3.0 mph SE4.8 kmh SE 4.5 mph7.2 kmh 30.00 in1015.9 mb 0.00 in0.0 mm 0.00 in0.0 mm 0.00 in0.0 mm
03:35 AM 51.8°F11.0°C 45.9°F7.7°C 80% 2.8 mph E4.5 kmh E 5.4 mph8.7 kmh 30.00 in1015.9 mb 0.00 in0.0 mm 0.00 in0.0 mm 0.00 in0.0 mm
03:40 AM 52.0°F11.1°C 46.0°F7.8°C 80% 2.8 mph ESE4.5 kmh ESE 4.5 mph7.2 kmh 30.00 in1015.9 mb 0.00 in0.0 mm 0.00 in0.0 mm 0.00 in0.0 mm
03:45 AM 52.0°F11.1°C 46.0°F7.8°C 80% 5.1 mph ESE8.2 kmh ESE 9.8 mph15.8 kmh 30.00 in1015.9 mb 0.00 in0.0 mm 0.00 in0.0 mm 0.00 in0.0 mm
03:50 AM 52.0°F11.1°C 46.0°F7.8°C 80% 5.2 mph SE8.4 kmh SE 9.2 mph14.8 kmh 29.99 in1015.6 mb 0.00 in0.0 mm 0.00 in0.0 mm 0.00 in0.0 mm
03:55 AM 52.0°F11.1°C 46.0°F7.8°C 80% 6.1 mph SE9.8 kmh SE 10.7 mph17.2 kmh 29.99 in1015.6 mb 0.00 in0.0 mm 0.00 in0.0 mm 0.00 in0.0 mm
04:00 AM 52.1°F11.2°C 46.1°F7.8°C 80% 6.5 mph SE10.5 kmh SE 9.8 mph15.8 kmh 29.99 in1015.6 mb 0.00 in0.0 mm 0.00 in0.0 mm 0.00 in0.0 mm
04:05 AM 52.2°F11.2°C 46.2°F7.9°C 80% 4.5 mph SE7.2 kmh SE 5.4 mph8.7 kmh 29.99 in1015.6 mb 0.00 in0.0 mm 0.00 in0.0 mm 0.00 in0.0 mm
04:10 AM 52.2°F11.2°C 46.2°F7.9°C 80% 6.2 mph SE10.0 kmh SE 10.7 mph17.2 kmh 29.99 in1015.6 mb 0.00 in0.0 mm 0.00 in0.0 mm 0.00 in0.0 mm
04:15 AM 52.2°F11.2°C 46.2°F7.9°C 80% 4.9 mph ESE7.9 kmh ESE 7.6 mph12.2 kmh 29.99 in1015.6 mb 0.00 in0.0 mm 0.00 in0.0 mm 0.00 in0.0 mm
04:20 AM 52.2°F11.2°C 46.2°F7.9°C 80% 5.6 mph SE9.0 kmh SE 9.8 mph15.8 kmh 30.00 in1015.9 mb 0.00 in0.0 mm 0.00 in0.0 mm 0.00 in0.0 mm
04:25 AM 52.2°F11.2°C 46.2°F7.9°C 80% 5.0 mph SE8.0 kmh SE 7.6 mph12.2 kmh 30.00 in1015.9 mb 0.00 in0.0 mm 0.00 in0.0 mm 0.00 in0.0 mm
04:30 AM 52.2°F11.2°C 46.2°F7.9°C 80% 4.1 mph SE6.6 kmh SE 9.2 mph14.8 kmh 30.00 in1015.9 mb 0.00 in0.0 mm 0.00 in0.0 mm 0.00 in0.0 mm
04:35 AM 52.2°F11.2°C 46.2°F7.9°C 80% 4.6 mph SE7.4 kmh SE 7.6 mph12.2 kmh 30.00 in1015.9 mb 0.00 in0.0 mm 0.00 in0.0 mm 0.00 in0.0 mm
04:40 AM 52.2°F11.2°C 46.2°F7.9°C 80% 4.1 mph SE6.6 kmh SE 6.9 mph11.1 kmh 30.00 in1015.9 mb 0.00 in0.0 mm 0.00 in0.0 mm 0.00 in0.0 mm
04:45 AM 52.2°F11.2°C 46.2°F7.9°C 80% 2.7 mph SE4.3 kmh SE 6.0 mph9.7 kmh 30.00 in1015.9 mb 0.00 in0.0 mm 0.00 in0.0 mm 0.00 in0.0 mm
04:50 AM 52.0°F11.1°C 46.1°F7.8°C 80% 5.0 mph ENE8.0 kmh ENE 7.6 mph12.2 kmh 29.99 in1015.6 mb 0.00 in0.0 mm 0.00 in0.0 mm 0.00 in0.0 mm
04:55 AM 52.0°F11.1°C 46.0°F7.8°C 80% 3.8 mph ENE6.1 kmh ENE 6.0 mph9.7 kmh 29.99 in1015.6 mb 0.00 in0.0 mm 0.00 in0.0 mm 0.00 in0.0 mm
05:00 AM 52.0°F11.1°C 46.0°F7.8°C 80% 1.0 mph ESE1.6 kmh ESE 3.1 mph5.0 kmh 30.00 in1015.9 mb 0.00 in0.0 mm 0.00 in0.0 mm 0.00 in0.0 mm
05:05 AM 52.0°F11.1°C 46.0°F7.8°C 80% 1.7 mph SE2.7 kmh SE 3.8 mph6.1 kmh 29.99 in1015.6 mb 0.00 in0.0 mm 0.00 in0.0 mm 0.00 in0.0 mm
05:10 AM 52.0°F11.1°C 46.0°F7.8°C 80% 0.9 mph WSW1.4 kmh WSW 2.2 mph3.5 kmh 30.00 in1015.9 mb 0.00 in0.0 mm 0.00 in0.0 mm 0.00 in0.0 mm
05:15 AM 51.8°F11.0°C 45.8°F7.7°C 80% 0.3 mph WSW0.5 kmh WSW 1.6 mph2.6 kmh 30.00 in1015.9 mb 0.00 in0.0 mm 0.00 in0.0 mm 0.00 in0.0 mm
05:20 AM 51.7°F10.9°C 45.8°F7.7°C 80% 1.2 mph SW1.9 kmh SW 2.2 mph3.5 kmh 30.00 in1015.9 mb 0.00 in0.0 mm 0.00 in0.0 mm 0.00 in0.0 mm
05:25 AM 51.5°F10.8°C 45.6°F7.6°C 80% 1.2 mph WSW1.9 kmh WSW 2.2 mph3.5 kmh 30.00 in1015.9 mb 0.00 in0.0 mm 0.00 in0.0 mm 0.00 in0.0 mm
05:30 AM 51.3°F10.7°C 45.4°F7.4°C 80% Calm Calm 0.7 mph1.1 kmh 30.00 in1015.9 mb 0.00 in0.0 mm 0.00 in0.0 mm 0.00 in0.0 mm
05:35 AM 51.2°F10.7°C 45.3°F7.4°C 80% 1.0 mph E1.6 kmh E 2.2 mph3.5 kmh 30.00 in1015.9 mb 0.00 in0.0 mm 0.00 in0.0 mm 0.00 in0.0 mm
05:40 AM 51.1°F10.6°C 45.1°F7.3°C 80% 1.2 mph S1.9 kmh S 3.8 mph6.1 kmh 30.00 in1015.9 mb 0.00 in0.0 mm 0.00 in0.0 mm 0.00 in0.0 mm
05:45 AM 51.1°F10.6°C 45.1°F7.3°C 80% 4.9 mph SSE7.9 kmh SSE 7.6 mph12.2 kmh 30.01 in1016.3 mb 0.00 in0.0 mm 0.00 in0.0 mm 0.00 in0.0 mm
05:50 AM 51.2°F10.7°C 45.2°F7.3°C 80% 3.1 mph SSW5.0 kmh SSW 5.4 mph8.7 kmh 30.01 in1016.3 mb 0.00 in0.0 mm 0.00 in0.0 mm 0.00 in0.0 mm
05:55 AM 51.4°F10.8°C 45.4°F7.4°C 80% 5.7 mph SE9.2 kmh SE 7.6 mph12.2 kmh 30.01 in1016.3 mb 0.00 in0.0 mm 0.00 in0.0 mm 0.00 in0.0 mm
06:00 AM 51.6°F10.9°C 45.7°F7.6°C 80% 2.5 mph S4.0 kmh S 5.4 mph8.7 kmh 30.01 in1016.3 mb 0.00 in0.0 mm 0.00 in0.0 mm 0.00 in0.0 mm
06:05 AM 51.8°F11.0°C 45.8°F7.7°C 80% 3.1 mph E5.0 kmh E 3.8 mph6.1 kmh 30.02 in1016.6 mb 0.00 in0.0 mm 0.00 in0.0 mm 0.00 in0.0 mm
06:10 AM 51.9°F11.1°C 45.9°F7.7°C 80% 3.6 mph SSE5.8 kmh SSE 6.0 mph9.7 kmh 30.02 in1016.6 mb 0.00 in0.0 mm 0.00 in0.0 mm 0.00 in0.0 mm
06:15 AM 52.2°F11.2°C 45.8°F7.7°C 79% 4.3 mph SE6.9 kmh SE 8.3 mph13.4 kmh 30.02 in1016.6 mb 0.00 in0.0 mm 0.00 in0.0 mm 0.00 in0.0 mm
06:20 AM 52.2°F11.2°C 45.7°F7.6°C 79% 5.3 mph SSE8.5 kmh SSE 8.3 mph13.4 kmh 30.01 in1016.3 mb 0.00 in0.0 mm 0.00 in0.0 mm 0.00 in0.0 mm
06:25 AM 52.3°F11.3°C 45.7°F7.6°C 78% 4.9 mph SE7.9 kmh SE 9.2 mph14.8 kmh 30.01 in1016.3 mb 0.00 in0.0 mm 0.00 in0.0 mm 0.00 in0.0 mm
06:30 AM 52.3°F11.3°C 45.5°F7.5°C 78% 5.6 mph SE9.0 kmh SE 9.8 mph15.8 kmh 30.01 in1016.3 mb 0.00 in0.0 mm 0.00 in0.0 mm 0.00 in0.0 mm
06:35 AM 52.4°F11.3°C 45.4°F7.4°C 77% 7.0 mph S11.3 kmh S 10.7 mph17.2 kmh 30.01 in1016.3 mb 0.00 in0.0 mm 0.00 in0.0 mm 0.00 in0.0 mm
06:40 AM 52.5°F11.4°C 45.3°F7.4°C 76% 4.6 mph SW7.4 kmh SW 6.9 mph11.1 kmh 30.01 in1016.3 mb 0.00 in0.0 mm 0.00 in0.0 mm 0.00 in0.0 mm
06:45 AM 52.5°F11.4°C 45.1°F7.3°C 76% 3.5 mph SW5.6 kmh SW 5.4 mph8.7 kmh 30.01 in1016.3 mb 0.00 in0.0 mm 0.00 in0.0 mm 0.00 in0.0 mm
06:50 AM 52.3°F11.3°C 45.0°F7.2°C 76% 4.0 mph S6.4 kmh S 6.9 mph11.1 kmh 30.01 in1016.3 mb 0.00 in0.0 mm 0.00 in0.0 mm 0.00 in0.0 mm
06:55 AM 52.2°F11.2°C 44.8°F7.1°C 76% 2.0 mph SW3.2 kmh SW 7.6 mph12.2 kmh 30.02 in1016.6 mb 0.00 in0.0 mm 0.00 in0.0 mm 0.00 in0.0 mm
07:00 AM 52.1°F11.2°C 44.8°F7.1°C 76% 3.5 mph SW5.6 kmh SW 6.0 mph9.7 kmh 30.02 in1016.6 mb 0.00 in0.0 mm 0.00 in0.0 mm 0.00 in0.0 mm
07:05 AM 52.0°F11.1°C 44.7°F7.1°C 76% 3.5 mph SSW5.6 kmh SSW 6.0 mph9.7 kmh 30.02 in1016.6 mb 0.00 in0.0 mm 0.00 in0.0 mm 0.00 in0.0 mm
07:10 AM 51.9°F11.1°C 44.6°F7.0°C 76% 2.7 mph SW4.3 kmh SW 4.5 mph7.2 kmh 30.03 in1016.9 mb 0.00 in0.0 mm 0.00 in0.0 mm 0.00 in0.0 mm
07:15 AM 51.8°F11.0°C 44.5°F6.9°C 76% 1.9 mph WSW3.1 kmh WSW 3.1 mph5.0 kmh 30.03 in1016.9 mb 0.00 in0.0 mm 0.00 in0.0 mm 0.00 in0.0 mm
07:20 AM 51.6°F10.9°C 44.3°F6.8°C 76% 2.0 mph SW3.2 kmh SW 3.8 mph6.1 kmh 30.03 in1016.9 mb 0.00 in0.0 mm 0.00 in0.0 mm 0.00 in0.0 mm
07:25 AM 51.5°F10.8°C 44.2°F6.8°C 76% 3.4 mph S5.5 kmh S 5.4 mph8.7 kmh 30.03 in1016.9 mb 0.00 in0.0 mm 0.00 in0.0 mm 0.00 in0.0 mm
07:30 AM 51.4°F10.8°C 44.1°F6.7°C 76% 3.0 mph S4.8 kmh S 4.5 mph7.2 kmh 30.03 in1016.9 mb 0.00 in0.0 mm 0.00 in0.0 mm 0.00 in0.0 mm
07:35 AM 51.3°F10.7°C 44.2°F6.8°C 76% 3.4 mph S5.5 kmh S 4.5 mph7.2 kmh 30.04 in1017.3 mb 0.00 in0.0 mm 0.00 in0.0 mm 0.00 in0.0 mm
07:40 AM 51.3°F10.7°C 44.3°F6.8°C 77% 3.6 mph SW5.8 kmh SW 5.4 mph8.7 kmh 30.04 in1017.3 mb 0.00 in0.0 mm 0.00 in0.0 mm 0.00 in0.0 mm
07:45 AM 51.3°F10.7°C 44.3°F6.8°C 77% 2.7 mph SSW4.3 kmh SSW 4.5 mph7.2 kmh 30.04 in1017.3 mb 0.00 in0.0 mm 0.00 in0.0 mm 0.00 in0.0 mm
07:50 AM 51.2°F10.7°C 44.2°F6.8°C 77% 3.8 mph SW6.1 kmh SW 5.4 mph8.7 kmh 30.04 in1017.3 mb 0.00 in0.0 mm 0.00 in0.0 mm 0.00 in0.0 mm
07:55 AM 51.2°F10.7°C 44.2°F6.8°C 77% 3.6 mph SW5.8 kmh SW 5.4 mph8.7 kmh 30.04 in1017.3 mb 0.00 in0.0 mm 0.00 in0.0 mm 0.00 in0.0 mm
08:00 AM 51.3°F10.7°C 44.5°F6.9°C 78% 3.5 mph SW5.6 kmh SW 4.5 mph7.2 kmh 30.04 in1017.3 mb 0.00 in0.0 mm 0.00 in0.0 mm 0.00 in0.0 mm
08:05 AM 51.4°F10.8°C 44.8°F7.1°C 78% 2.2 mph SW3.5 kmh SW 3.1 mph5.0 kmh 30.05 in1017.6 mb 0.00 in0.0 mm 0.00 in0.0 mm 0.00 in0.0 mm
08:10 AM 51.6°F10.9°C 44.8°F7.1°C 78% 4.1 mph SW6.6 kmh SW 10.7 mph17.2 kmh 30.05 in1017.6 mb 0.00 in0.0 mm 0.00 in0.0 mm 0.00 in0.0 mm
08:15 AM 52.1°F11.2°C 45.0°F7.2°C 77% 6.4 mph S10.3 kmh S 10.7 mph17.2 kmh 30.05 in1017.6 mb 0.00 in0.0 mm 0.00 in0.0 mm 0.00 in0.0 mm
08:20 AM 52.5°F11.4°C 45.0°F7.2°C 75% 8.1 mph S13.0 kmh S 12.1 mph19.5 kmh 30.05 in1017.6 mb 0.00 in0.0 mm 0.00 in0.0 mm 0.00 in0.0 mm
08:25 AM 52.7°F11.5°C 44.8°F7.1°C 74% 7.9 mph S12.7 kmh S 13.6 mph21.9 kmh 30.05 in1017.6 mb 0.00 in0.0 mm 0.00 in0.0 mm 0.00 in0.0 mm
08:30 AM 52.9°F11.6°C 44.7°F7.1°C 74% 10.2 mph SSE16.4 kmh SSE 15.9 mph25.6 kmh 30.05 in1017.6 mb 0.00 in0.0 mm 0.00 in0.0 mm 0.00 in0.0 mm
08:35 AM 53.1°F11.7°C 44.6°F7.0°C 73% 11.7 mph SSW18.8 kmh SSW 16.8 mph27.0 kmh 30.05 in1017.6 mb 0.00 in0.0 mm 0.00 in0.0 mm 0.00 in0.0 mm
08:40 AM 53.1°F11.7°C 44.7°F7.1°C 73% 10.7 mph SSE17.2 kmh SSE 15.9 mph25.6 kmh 30.05 in1017.6 mb 0.00 in0.0 mm 0.00 in0.0 mm 0.00 in0.0 mm
08:45 AM 53.4°F11.9°C 44.9°F7.2°C 73% 7.1 mph S11.4 kmh S 11.4 mph18.3 kmh 30.05 in1017.6 mb 0.00 in0.0 mm 0.00 in0.0 mm 0.00 in0.0 mm
08:50 AM 53.7°F12.1°C 44.9°F7.2°C 72% 10.1 mph S16.3 kmh S 15.2 mph24.5 kmh 30.05 in1017.6 mb 0.00 in0.0 mm 0.00 in0.0 mm 0.00 in0.0 mm
08:55 AM 54.0°F12.2°C 45.0°F7.2°C 72% 9.0 mph SSE14.5 kmh SSE 14.5 mph23.3 kmh 30.05 in1017.6 mb 0.00 in0.0 mm 0.00 in0.0 mm 0.00 in0.0 mm
09:00 AM 54.4°F12.4°C 45.2°F7.3°C 71% 8.2 mph S13.2 kmh S 14.5 mph23.3 kmh 30.05 in1017.6 mb 0.00 in0.0 mm 0.00 in0.0 mm 0.00 in0.0 mm
09:05 AM 54.5°F12.5°C 45.3°F7.4°C 71% 7.7 mph SSW12.4 kmh SSW 12.1 mph19.5 kmh 30.05 in1017.6 mb 0.00 in0.0 mm 0.00 in0.0 mm 0.00 in0.0 mm
09:10 AM 54.4°F12.4°C 45.2°F7.3°C 71% 11.0 mph S17.7 kmh S 14.5 mph23.3 kmh 30.05 in1017.6 mb 0.00 in0.0 mm 0.00 in0.0 mm 0.00 in0.0 mm
09:15 AM 54.1°F12.3°C 44.9°F7.2°C 71% 7.9 mph S12.7 kmh S 10.7 mph17.2 kmh 30.05 in1017.6 mb 0.00 in0.0 mm 0.00 in0.0 mm 0.00 in0.0 mm
09:20 AM 54.2°F12.3°C 45.0°F7.2°C 71% 9.5 mph S15.3 kmh S 13.6 mph21.9 kmh 30.05 in1017.6 mb 0.00 in0.0 mm 0.00 in0.0 mm 0.00 in0.0 mm
09:25 AM 54.3°F12.4°C 45.1°F7.3°C 71% 11.5 mph S18.5 kmh S 20.6 mph33.2 kmh 30.05 in1017.6 mb 0.00 in0.0 mm 0.00 in0.0 mm 0.00 in0.0 mm
09:30 AM 54.3°F12.4°C 44.9°F7.2°C 70% 8.8 mph S14.2 kmh S 13.0 mph20.9 kmh 30.05 in1017.6 mb 0.00 in0.0 mm 0.00 in0.0 mm 0.00 in0.0 mm
09:35 AM 54.3°F12.4°C 44.7°F7.1°C 70% 10.6 mph SSE17.1 kmh SSE 18.3 mph29.5 kmh 30.05 in1017.6 mb 0.00 in0.0 mm 0.00 in0.0 mm 0.00 in0.0 mm
09:40 AM 54.3°F12.4°C 45.1°F7.3°C 71% 9.9 mph S15.9 kmh S 14.5 mph23.3 kmh 30.05 in1017.6 mb 0.00 in0.0 mm 0.00 in0.0 mm 0.00 in0.0 mm
09:45 AM 54.3°F12.4°C 44.9°F7.2°C 70% 10.8 mph SSW17.4 kmh SSW 20.6 mph33.2 kmh 30.05 in1017.6 mb 0.00 in0.0 mm 0.00 in0.0 mm 0.00 in0.0 mm
09:50 AM 54.3°F12.4°C 45.0°F7.2°C 71% 12.3 mph S19.8 kmh S 19.7 mph31.7 kmh 30.05 in1017.6 mb 0.00 in0.0 mm 0.00 in0.0 mm 0.00 in0.0 mm
09:55 AM 54.3°F12.4°C 45.1°F7.3°C 71% 8.9 mph S14.3 kmh S 19.0 mph30.6 kmh 30.04 in1017.3 mb 0.00 in0.0 mm 0.00 in0.0 mm 0.00 in0.0 mm
10:00 AM 54.4°F12.4°C 44.9°F7.2°C 70% 15.0 mph S24.1 kmh S 21.3 mph34.3 kmh 30.05 in1017.6 mb 0.00 in0.0 mm 0.00 in0.0 mm 0.00 in0.0 mm
10:05 AM 54.5°F12.5°C 44.9°F7.2°C 70% 18.8 mph SE30.3 kmh SE 24.4 mph39.3 kmh 30.05 in1017.6 mb 0.00 in0.0 mm 0.00 in0.0 mm 0.00 in0.0 mm
10:10 AM 54.6°F12.6°C 45.0°F7.2°C 70% 10.9 mph SE17.5 kmh SE 17.4 mph28.0 kmh 30.04 in1017.3 mb 0.00 in0.0 mm 0.00 in0.0 mm 0.00 in0.0 mm
10:15 AM 54.7°F12.6°C 44.9°F7.2°C 69% 10.9 mph S17.5 kmh S 17.4 mph28.0 kmh 30.04 in1017.3 mb 0.00 in0.0 mm 0.00 in0.0 mm 0.00 in0.0 mm
10:20 AM 54.9°F12.7°C 43.3°F6.3°C 65% 14.5 mph S23.3 kmh S 21.3 mph34.3 kmh 30.05 in1017.6 mb 0.00 in0.0 mm 0.00 in0.0 mm 0.00 in0.0 mm
10:25 AM 54.9°F12.7°C 43.3°F6.3°C 65% 10.6 mph SSE17.1 kmh SSE 18.3 mph29.5 kmh 30.05 in1017.6 mb 0.00 in0.0 mm 0.00 in0.0 mm 0.00 in0.0 mm
10:30 AM 55.0°F12.8°C 43.4°F6.3°C 65% 10.0 mph S16.1 kmh S 20.6 mph33.2 kmh 30.05 in1017.6 mb 0.00 in0.0 mm 0.00 in0.0 mm 0.00 in0.0 mm
10:35 AM 55.5°F13.1°C 43.9°F6.6°C 65% 10.2 mph SSW16.4 kmh SSW 19.0 mph30.6 kmh 30.05 in1017.6 mb 0.00 in0.0 mm 0.00 in0.0 mm 0.00 in0.0 mm
10:40 AM 56.2°F13.4°C 44.3°F6.8°C 64% 8.1 mph S13.0 kmh S 12.1 mph19.5 kmh 30.05 in1017.6 mb 0.00 in0.0 mm 0.00 in0.0 mm 0.00 in0.0 mm
10:45 AM 56.4°F13.6°C 44.0°F6.7°C 63% 9.9 mph SSW15.9 kmh SSW 15.9 mph25.6 kmh 30.05 in1017.6 mb 0.00 in0.0 mm 0.00 in0.0 mm 0.00 in0.0 mm
10:50 AM 56.5°F13.6°C 44.0°F6.7°C 63% 11.5 mph SSW18.5 kmh SSW 19.0 mph30.6 kmh 30.05 in1017.6 mb 0.00 in0.0 mm 0.00 in0.0 mm 0.00 in0.0 mm
10:55 AM 56.4°F13.6°C 43.9°F6.6°C 63% 9.7 mph S15.6 kmh S 15.2 mph24.5 kmh 30.05 in1017.6 mb 0.00 in0.0 mm 0.00 in0.0 mm 0.00 in0.0 mm
11:00 AM 56.3°F13.5°C 43.9°F6.6°C 63% 8.7 mph SSE14.0 kmh SSE 14.5 mph23.3 kmh 30.04 in1017.3 mb 0.00 in0.0 mm 0.00 in0.0 mm 0.00 in0.0 mm
11:05 AM 56.3°F13.5°C 43.9°F6.6°C 63% 6.0 mph SE9.7 kmh SE 8.3 mph13.4 kmh 30.05 in1017.6 mb 0.00 in0.0 mm 0.00 in0.0 mm 0.00 in0.0 mm
11:10 AM 56.1°F13.4°C 43.7°F6.5°C 63% 10.0 mph S16.1 kmh S 15.2 mph24.5 kmh 30.05 in1017.6 mb 0.00 in0.0 mm 0.00 in0.0 mm 0.00 in0.0 mm
11:15 AM 56.5°F13.6°C 44.0°F6.7°C 63% 9.2 mph S14.8 kmh S 14.5 mph23.3 kmh 30.04 in1017.3 mb 0.00 in0.0 mm 0.00 in0.0 mm 0.00 in0.0 mm
11:20 AM 57.3°F14.1°C 44.4°F6.9°C 62% 11.5 mph S18.5 kmh S 17.4 mph28.0 kmh 30.04 in1017.3 mb 0.00 in0.0 mm 0.00 in0.0 mm 0.00 in0.0 mm
11:25 AM 57.7°F14.3°C 44.4°F6.9°C 61% 9.7 mph SSE15.6 kmh SSE 15.2 mph24.5 kmh 30.04 in1017.3 mb 0.00 in0.0 mm 0.00 in0.0 mm 0.00 in0.0 mm
11:30 AM 57.7°F14.3°C 44.4°F6.9°C 61% 10.7 mph S17.2 kmh S 15.2 mph24.5 kmh 30.04 in1017.3 mb 0.00 in0.0 mm 0.00 in0.0 mm 0.00 in0.0 mm
11:35 AM 57.6°F14.2°C 44.2°F6.8°C 61% 11.8 mph S19.0 kmh S 18.3 mph29.5 kmh 30.04 in1017.3 mb 0.00 in0.0 mm 0.00 in0.0 mm 0.00 in0.0 mm
11:40 AM 57.3°F14.1°C 43.9°F6.6°C 61% 12.9 mph S20.8 kmh S 20.6 mph33.2 kmh 30.05 in1017.6 mb 0.00 in0.0 mm 0.00 in0.0 mm 0.00 in0.0 mm
11:45 AM 57.1°F13.9°C 43.8°F6.6°C 61% 8.8 mph S14.2 kmh S 13.6 mph21.9 kmh 30.05 in1017.6 mb 0.00 in0.0 mm 0.00 in0.0 mm 0.00 in0.0 mm
11:50 AM 57.0°F13.9°C 43.7°F6.5°C 61% 7.8 mph S12.6 kmh S 10.7 mph17.2 kmh 30.05 in1017.6 mb 0.00 in0.0 mm 0.00 in0.0 mm 0.00 in0.0 mm
11:55 AM 57.0°F13.9°C 43.8°F6.6°C 61% 6.1 mph S9.8 kmh S 10.7 mph17.2 kmh 30.05 in1017.6 mb 0.00 in0.0 mm 0.00 in0.0 mm 0.00 in0.0 mm
12:00 PM 57.0°F13.9°C 43.7°F6.5°C 61% 10.5 mph S16.9 kmh S 14.5 mph23.3 kmh 30.05 in1017.6 mb 0.00 in0.0 mm 0.00 in0.0 mm 0.00 in0.0 mm
12:05 PM 57.0°F13.9°C 43.7°F6.5°C 61% 11.4 mph S18.3 kmh S 13.0 mph20.9 kmh 30.05 in1017.6 mb 0.00 in0.0 mm 0.00 in0.0 mm 0.00 in0.0 mm
12:10 PM 57.0°F13.9°C 43.7°F6.5°C 61% 8.5 mph S13.7 kmh S 15.9 mph25.6 kmh 30.05 in1017.6 mb 0.00 in0.0 mm 0.00 in0.0 mm 0.00 in0.0 mm
12:15 PM 57.0°F13.9°C 43.8°F6.6°C 61% 4.7 mph S7.6 kmh S 9.8 mph15.8 kmh 30.05 in1017.6 mb 0.00 in0.0 mm 0.00 in0.0 mm 0.00 in0.0 mm
12:20 PM 57.2°F14.0°C 43.9°F6.6°C 61% 6.9 mph SSE11.1 kmh SSE 14.5 mph23.3 kmh 30.05 in1017.6 mb 0.00 in0.0 mm 0.00 in0.0 mm 0.00 in0.0 mm
12:25 PM 57.5°F14.2°C 44.1°F6.7°C 61% 5.5 mph SSE8.9 kmh SSE 13.0 mph20.9 kmh 30.05 in1017.6 mb 0.00 in0.0 mm 0.00 in0.0 mm 0.00 in0.0 mm
12:30 PM 57.6°F14.2°C 44.2°F6.8°C 61% 8.8 mph S14.2 kmh S 15.2 mph24.5 kmh 30.05 in1017.6 mb 0.00 in0.0 mm 0.00 in0.0 mm 0.00 in0.0 mm
12:35 PM 57.6°F14.2°C 44.2°F6.8°C 61% 5.8 mph S9.3 kmh S 11.4 mph18.3 kmh 30.05 in1017.6 mb 0.00 in0.0 mm 0.00 in0.0 mm 0.00 in0.0 mm
12:40 PM 57.6°F14.2°C 44.2°F6.8°C 61% 5.0 mph S8.0 kmh S 8.3 mph13.4 kmh 30.05 in1017.6 mb 0.00 in0.0 mm 0.00 in0.0 mm 0.00 in0.0 mm
12:45 PM 57.6°F14.2°C 44.2°F6.8°C 61% 5.7 mph S9.2 kmh S 9.2 mph14.8 kmh 30.05 in1017.6 mb 0.00 in0.0 mm 0.00 in0.0 mm 0.00 in0.0 mm
12:50 PM 57.6°F14.2°C 44.2°F6.8°C 61% 4.8 mph SE7.7 kmh SE 7.6 mph12.2 kmh 30.05 in1017.6 mb 0.00 in0.0 mm 0.00 in0.0 mm 0.00 in0.0 mm
12:55 PM 57.6°F14.2°C 44.2°F6.8°C 61% 6.3 mph SSE10.1 kmh SSE 10.7 mph17.2 kmh 30.05 in1017.6 mb 0.00 in0.0 mm 0.00 in0.0 mm 0.00 in0.0 mm
01:00 PM 57.7°F14.3°C 44.3°F6.8°C 61% 5.5 mph SE8.9 kmh SE 7.6 mph12.2 kmh 30.05 in1017.6 mb 0.00 in0.0 mm 0.00 in0.0 mm 0.00 in0.0 mm
01:05 PM 57.7°F14.3°C 44.4°F6.9°C 61% 3.8 mph S6.1 kmh S 5.4 mph8.7 kmh 30.05 in1017.6 mb 0.00 in0.0 mm 0.00 in0.0 mm 0.00 in0.0 mm
01:10 PM 57.7°F14.3°C 44.4°F6.9°C 61% 5.2 mph S8.4 kmh S 9.2 mph14.8 kmh 30.05 in1017.6 mb 0.00 in0.0 mm 0.00 in0.0 mm 0.00 in0.0 mm
01:15 PM 57.9°F14.4°C 44.6°F7.0°C 61% 6.5 mph S10.5 kmh S 9.2 mph14.8 kmh 30.05 in1017.6 mb 0.00 in0.0 mm 0.00 in0.0 mm 0.00 in0.0 mm
01:20 PM 57.9°F14.4°C 44.6°F7.0°C 61% 9.3 mph SSE15.0 kmh SSE 13.6 mph21.9 kmh 30.05 in1017.6 mb 0.00 in0.0 mm 0.00 in0.0 mm 0.00 in0.0 mm
01:25 PM 57.8°F14.3°C 44.4°F6.9°C 61% 6.6 mph S10.6 kmh S 13.0 mph20.9 kmh 30.05 in1017.6 mb 0.00 in0.0 mm 0.00 in0.0 mm 0.00 in0.0 mm
01:30 PM 57.7°F14.3°C 44.4°F6.9°C 61% 9.2 mph S14.8 kmh S 14.5 mph23.3 kmh 30.04 in1017.3 mb 0.00 in0.0 mm 0.00 in0.0 mm 0.00 in0.0 mm
01:35 PM 57.8°F14.3°C 44.7°F7.1°C 62% 3.6 mph S5.8 kmh S 5.4 mph8.7 kmh 30.04 in1017.3 mb 0.00 in0.0 mm 0.00 in0.0 mm 0.00 in0.0 mm
01:40 PM 58.0°F14.4°C 45.0°F7.2°C 62% 3.9 mph SSW6.3 kmh SSW 6.0 mph9.7 kmh 30.04 in1017.3 mb 0.00 in0.0 mm 0.00 in0.0 mm 0.00 in0.0 mm
01:45 PM 58.0°F14.4°C 44.7°F7.1°C 61% 5.8 mph S9.3 kmh S 12.1 mph19.5 kmh 30.05 in1017.6 mb 0.00 in0.0 mm 0.00 in0.0 mm 0.00 in0.0 mm
01:50 PM 58.0°F14.4°C 44.8°F7.1°C 61% 3.5 mph SW5.6 kmh SW 5.4 mph8.7 kmh 30.05 in1017.6 mb 0.01 in0.3 mm 0.12 in3.0 mm 0.01 in0.3 mm
01:55 PM 58.1°F14.5°C 44.9°F7.2°C 61% 3.4 mph S5.5 kmh S 7.6 mph12.2 kmh 30.05 in1017.6 mb 0.01 in0.3 mm 0.00 in0.0 mm 0.01 in0.3 mm
02:00 PM 58.1°F14.5°C 44.9°F7.2°C 61% 2.7 mph S4.3 kmh S 9.2 mph14.8 kmh 30.05 in1017.6 mb 0.01 in0.3 mm 0.00 in0.0 mm 0.01 in0.3 mm
02:05 PM 58.2°F14.6°C 45.2°F7.3°C 62% 5.1 mph S8.2 kmh S 8.3 mph13.4 kmh 30.05 in1017.6 mb 0.01 in0.3 mm 0.00 in0.0 mm 0.01 in0.3 mm
02:10 PM 58.5°F14.7°C 45.4°F7.4°C 62% 8.2 mph S13.2 kmh S 13.0 mph20.9 kmh 30.05 in1017.6 mb 0.01 in0.3 mm 0.00 in0.0 mm 0.01 in0.3 mm
02:15 PM 58.5°F14.7°C 45.2°F7.3°C 61% 6.9 mph SW11.1 kmh SW 10.7 mph17.2 kmh 30.06 in1017.9 mb 0.01 in0.3 mm 0.00 in0.0 mm 0.01 in0.3 mm
02:20 PM 58.4°F14.7°C 45.3°F7.4°C 62% 5.3 mph S8.5 kmh S 9.2 mph14.8 kmh 30.05 in1017.6 mb 0.01 in0.3 mm 0.00 in0.0 mm 0.01 in0.3 mm
02:25 PM 58.3°F14.6°C 45.3°F7.4°C 62% 4.8 mph S7.7 kmh S 8.3 mph13.4 kmh 30.05 in1017.6 mb 0.01 in0.3 mm 0.00 in0.0 mm 0.01 in0.3 mm
02:30 PM 58.2°F14.6°C 45.3°F7.4°C 62% 6.4 mph S10.3 kmh S 9.2 mph14.8 kmh 30.06 in1017.9 mb 0.01 in0.3 mm 0.00 in0.0 mm 0.01 in0.3 mm
02:35 PM 58.1°F14.5°C 45.3°F7.4°C 62% 7.2 mph S11.6 kmh S 10.7 mph17.2 kmh 30.06 in1017.9 mb 0.01 in0.3 mm 0.00 in0.0 mm 0.01 in0.3 mm
02:40 PM 58.0°F14.4°C 45.4°F7.4°C 63% 4.4 mph S7.1 kmh S 7.6 mph12.2 kmh 30.06 in1017.9 mb 0.01 in0.3 mm 0.00 in0.0 mm 0.01 in0.3 mm
02:45 PM 57.9°F14.4°C 45.4°F7.4°C 63% 5.9 mph SSW9.5 kmh SSW 7.6 mph12.2 kmh 30.06 in1017.9 mb 0.01 in0.3 mm 0.00 in0.0 mm 0.01 in0.3 mm
02:50 PM 57.8°F14.3°C 45.3°F7.4°C 63% 3.0 mph SE4.8 kmh SE 6.9 mph11.1 kmh 30.06 in1017.9 mb 0.00 in0.0 mm 0.00 in0.0 mm 0.01 in0.3 mm
02:55 PM 57.8°F14.3°C 45.3°F7.4°C 63% 6.9 mph SE11.1 kmh SE 10.7 mph17.2 kmh 30.06 in1017.9 mb 0.00 in0.0 mm 0.00 in0.0 mm 0.01 in0.3 mm
03:00 PM 57.7°F14.3°C 45.2°F7.3°C 63% 8.3 mph SSE13.4 kmh SSE 12.1 mph19.5 kmh 30.06 in1017.9 mb 0.00 in0.0 mm 0.00 in0.0 mm 0.01 in0.3 mm
03:05 PM 57.7°F14.3°C 45.2°F7.3°C 63% 6.9 mph SE11.1 kmh SE 8.3 mph13.4 kmh 30.06 in1017.9 mb 0.00 in0.0 mm 0.00 in0.0 mm 0.01 in0.3 mm
03:10 PM 57.7°F14.3°C 45.2°F7.3°C 63% 5.7 mph SE9.2 kmh SE 8.3 mph13.4 kmh 30.06 in1017.9 mb 0.00 in0.0 mm 0.00 in0.0 mm 0.01 in0.3 mm
03:15 PM 57.5°F14.2°C 45.0°F7.2°C 63% 3.7 mph SE6.0 kmh SE 6.9 mph11.1 kmh 30.06 in1017.9 mb 0.00 in0.0 mm 0.00 in0.0 mm 0.01 in0.3 mm
03:20 PM 57.4°F14.1°C 44.9°F7.2°C 63% 4.3 mph SSE6.9 kmh SSE 6.9 mph11.1 kmh 30.06 in1017.9 mb 0.00 in0.0 mm 0.00 in0.0 mm 0.01 in0.3 mm
03:25 PM 57.3°F14.1°C 44.8°F7.1°C 63% 4.3 mph S6.9 kmh S 9.2 mph14.8 kmh 30.06 in1017.9 mb 0.00 in0.0 mm 0.00 in0.0 mm 0.01 in0.3 mm
03:30 PM 57.2°F14.0°C 45.1°F7.3°C 64% 1.3 mph E2.1 kmh E 3.8 mph6.1 kmh 30.06 in1017.9 mb 0.00 in0.0 mm 0.00 in0.0 mm 0.01 in0.3 mm
03:35 PM 57.1°F13.9°C 45.1°F7.3°C 64% 2.4 mph SSW3.9 kmh SSW 5.4 mph8.7 kmh 30.06 in1017.9 mb 0.00 in0.0 mm 0.00 in0.0 mm 0.01 in0.3 mm
03:40 PM 56.9°F13.8°C 44.8°F7.1°C 64% 2.7 mph NE4.3 kmh NE 5.4 mph8.7 kmh 30.06 in1017.9 mb 0.00 in0.0 mm 0.00 in0.0 mm 0.01 in0.3 mm
03:45 PM 56.7°F13.7°C 44.7°F7.1°C 64% 2.7 mph SSE4.3 kmh SSE 6.9 mph11.1 kmh 30.06 in1017.9 mb 0.00 in0.0 mm 0.00 in0.0 mm 0.01 in0.3 mm
03:50 PM 56.6°F13.7°C 44.7°F7.1°C 64% 1.3 mph SE2.1 kmh SE 3.8 mph6.1 kmh 30.06 in1017.9 mb 0.00 in0.0 mm 0.00 in0.0 mm 0.01 in0.3 mm
03:55 PM 56.4°F13.6°C 44.8°F7.1°C 65% 4.1 mph S6.6 kmh S 7.6 mph12.2 kmh 30.06 in1017.9 mb 0.00 in0.0 mm 0.00 in0.0 mm 0.01 in0.3 mm
04:00 PM 56.2°F13.4°C 44.6°F7.0°C 65% 5.0 mph NE8.0 kmh NE 7.6 mph12.2 kmh 30.06 in1017.9 mb 0.00 in0.0 mm 0.00 in0.0 mm 0.01 in0.3 mm
04:05 PM 56.1°F13.4°C 44.9°F7.2°C 66% 5.4 mph ENE8.7 kmh ENE 6.0 mph9.7 kmh 30.06 in1017.9 mb 0.00 in0.0 mm 0.00 in0.0 mm 0.01 in0.3 mm
04:10 PM 55.9°F13.3°C 44.7°F7.1°C 66% 5.1 mph ENE8.2 kmh ENE 6.9 mph11.1 kmh 30.06 in1017.9 mb 0.00 in0.0 mm 0.00 in0.0 mm 0.01 in0.3 mm
04:15 PM 55.6°F13.1°C 44.8°F7.1°C 67% 5.0 mph NE8.0 kmh NE 8.3 mph13.4 kmh 30.06 in1017.9 mb 0.00 in0.0 mm 0.00 in0.0 mm 0.01 in0.3 mm
04:20 PM 55.6°F13.1°C 44.8°F7.1°C 67% 6.2 mph NE10.0 kmh NE 8.3 mph13.4 kmh 30.06 in1017.9 mb 0.00 in0.0 mm 0.00 in0.0 mm 0.01 in0.3 mm
04:25 PM 55.6°F13.1°C 44.8°F7.1°C 67% 4.8 mph NE7.7 kmh NE 7.6 mph12.2 kmh 30.06 in1017.9 mb 0.00 in0.0 mm 0.00 in0.0 mm 0.01 in0.3 mm
04:30 PM 55.6°F13.1°C 44.8°F7.1°C 67% 6.2 mph E10.0 kmh E 8.3 mph13.4 kmh 30.06 in1017.9 mb 0.00 in0.0 mm 0.00 in0.0 mm 0.01 in0.3 mm
04:35 PM 55.6°F13.1°C 44.8°F7.1°C 67% 1.5 mph SE2.4 kmh SE 5.4 mph8.7 kmh 30.07 in1018.3 mb 0.00 in0.0 mm 0.00 in0.0 mm 0.01 in0.3 mm
04:40 PM 55.6°F13.1°C 44.8°F7.1°C 67% 2.7 mph SE4.3 kmh SE 4.5 mph7.2 kmh 30.07 in1018.3 mb 0.00 in0.0 mm 0.00 in0.0 mm 0.01 in0.3 mm
04:45 PM 55.5°F13.1°C 44.7°F7.1°C 67% 1.8 mph S2.9 kmh S 3.1 mph5.0 kmh 30.07 in1018.3 mb 0.00 in0.0 mm 0.00 in0.0 mm 0.01 in0.3 mm
04:50 PM 55.4°F13.0°C 44.6°F7.0°C 67% 2.0 mph ESE3.2 kmh ESE 3.1 mph5.0 kmh 30.07 in1018.3 mb 0.00 in0.0 mm 0.00 in0.0 mm 0.01 in0.3 mm
04:55 PM 55.2°F12.9°C 44.6°F7.0°C 67% 3.7 mph ESE6.0 kmh ESE 7.6 mph12.2 kmh 30.07 in1018.3 mb 0.00 in0.0 mm 0.00 in0.0 mm 0.01 in0.3 mm
05:00 PM 55.2°F12.9°C 44.8°F7.1°C 68% 5.6 mph SE9.0 kmh SE 7.6 mph12.2 kmh 30.07 in1018.3 mb 0.00 in0.0 mm 0.00 in0.0 mm 0.01 in0.3 mm
05:05 PM 55.3°F12.9°C 45.2°F7.3°C 69% 3.5 mph SSE5.6 kmh SSE 6.0 mph9.7 kmh 30.07 in1018.3 mb 0.00 in0.0 mm 0.00 in0.0 mm 0.01 in0.3 mm
05:10 PM 55.5°F13.1°C 45.5°F7.5°C 69% 4.5 mph SSE7.2 kmh SSE 7.6 mph12.2 kmh 30.07 in1018.3 mb 0.00 in0.0 mm 0.00 in0.0 mm 0.01 in0.3 mm
05:15 PM 55.6°F13.1°C 45.6°F7.6°C 69% 4.3 mph S6.9 kmh S 6.9 mph11.1 kmh 30.07 in1018.3 mb 0.00 in0.0 mm 0.00 in0.0 mm 0.01 in0.3 mm
05:20 PM 55.8°F13.2°C 45.7°F7.6°C 69% 5.2 mph SSE8.4 kmh SSE 9.8 mph15.8 kmh 30.07 in1018.3 mb 0.00 in0.0 mm 0.00 in0.0 mm 0.01 in0.3 mm
05:25 PM 55.8°F13.2°C 45.4°F7.4°C 68% 4.2 mph S6.8 kmh S 6.9 mph11.1 kmh 30.07 in1018.3 mb 0.00 in0.0 mm 0.00 in0.0 mm 0.01 in0.3 mm
05:30 PM 55.9°F13.3°C 45.5°F7.5°C 68% 3.3 mph S5.3 kmh S 6.9 mph11.1 kmh 30.07 in1018.3 mb 0.00 in0.0 mm 0.00 in0.0 mm 0.01 in0.3 mm
05:35 PM 55.9°F13.3°C 45.5°F7.5°C 68% 2.8 mph S4.5 kmh S 6.0 mph9.7 kmh 30.07 in1018.3 mb 0.00 in0.0 mm 0.00 in0.0 mm 0.01 in0.3 mm
05:40 PM 55.9°F13.3°C 45.5°F7.5°C 68% 2.7 mph S4.3 kmh S 4.5 mph7.2 kmh 30.07 in1018.3 mb 0.00 in0.0 mm 0.00 in0.0 mm 0.01 in0.3 mm
05:45 PM 55.8°F13.2°C 45.4°F7.4°C 68% 2.4 mph S3.9 kmh S 3.8 mph6.1 kmh 30.07 in1018.3 mb 0.00 in0.0 mm 0.00 in0.0 mm 0.01 in0.3 mm
05:50 PM 55.7°F13.2°C 45.3°F7.4°C 68% 2.9 mph SSE4.7 kmh SSE 4.5 mph7.2 kmh 30.07 in1018.3 mb 0.00 in0.0 mm 0.00 in0.0 mm 0.01 in0.3 mm
05:55 PM 55.6°F13.1°C 45.2°F7.3°C 68% 2.4 mph S3.9 kmh S 4.5 mph7.2 kmh 30.07 in1018.3 mb 0.00 in0.0 mm 0.00 in0.0 mm 0.01 in0.3 mm
06:00 PM 55.6°F13.1°C 45.2°F7.3°C 68% 1.1 mph SW1.8 kmh SW 2.2 mph3.5 kmh 30.07 in1018.3 mb 0.00 in0.0 mm 0.00 in0.0 mm 0.01 in0.3 mm
06:05 PM 55.4°F13.0°C 45.0°F7.2°C 68% Calm Calm 0.7 mph1.1 kmh 30.07 in1018.3 mb 0.00 in0.0 mm 0.00 in0.0 mm 0.01 in0.3 mm
06:10 PM 55.3°F12.9°C 44.9°F7.2°C 68% 1.2 mph SE1.9 kmh SE 5.4 mph8.7 kmh 30.07 in1018.3 mb 0.00 in0.0 mm 0.00 in0.0 mm 0.01 in0.3 mm
06:15 PM 55.0°F12.8°C 44.7°F7.1°C 68% 2.0 mph SSW3.2 kmh SSW 3.1 mph5.0 kmh 30.07 in1018.3 mb 0.00 in0.0 mm 0.00 in0.0 mm 0.01 in0.3 mm
06:20 PM 55.0°F12.8°C 44.9°F7.2°C 69% 1.1 mph WSW1.8 kmh WSW 2.2 mph3.5 kmh 30.07 in1018.3 mb 0.00 in0.0 mm 0.00 in0.0 mm 0.01 in0.3 mm
06:25 PM 55.0°F12.8°C 45.1°F7.3°C 69% 1.5 mph WSW2.4 kmh WSW 2.2 mph3.5 kmh 30.07 in1018.3 mb 0.00 in0.0 mm 0.00 in0.0 mm 0.01 in0.3 mm
06:30 PM 54.9°F12.7°C 44.9°F7.2°C 69% 1.5 mph W2.4 kmh W 3.1 mph5.0 kmh 30.07 in1018.3 mb 0.00 in0.0 mm 0.00 in0.0 mm 0.01 in0.3 mm
06:35 PM 54.7°F12.6°C 45.3°F7.4°C 70% 0.8 mph WNW1.3 kmh WNW 2.2 mph3.5 kmh 30.08 in1018.6 mb 0.00 in0.0 mm 0.00 in0.0 mm 0.01 in0.3 mm
06:40 PM 54.4°F12.4°C 45.2°F7.3°C 71% 0.7 mph NE1.1 kmh NE 2.2 mph3.5 kmh 30.08 in1018.6 mb 0.00 in0.0 mm 0.00 in0.0 mm 0.01 in0.3 mm
06:45 PM 54.0°F12.2°C 44.8°F7.1°C 71% 2.0 mph NE3.2 kmh NE 3.1 mph5.0 kmh 30.08 in1018.6 mb 0.00 in0.0 mm 0.00 in0.0 mm 0.01 in0.3 mm
06:50 PM 53.7°F12.1°C 44.8°F7.1°C 72% 1.6 mph NNW2.6 kmh NNW 3.1 mph5.0 kmh 30.08 in1018.6 mb 0.00 in0.0 mm 0.00 in0.0 mm 0.01 in0.3 mm
06:55 PM 53.4°F11.9°C 44.6°F7.0°C 72% 0.3 mph SW0.5 kmh SW 1.6 mph2.6 kmh 30.08 in1018.6 mb 0.00 in0.0 mm 0.00 in0.0 mm 0.01 in0.3 mm
07:00 PM 53.2°F11.8°C 44.4°F6.9°C 72% 1.3 mph NW2.1 kmh NW 2.2 mph3.5 kmh 30.08 in1018.6 mb 0.00 in0.0 mm 0.00 in0.0 mm 0.01 in0.3 mm
07:05 PM 52.8°F11.6°C 44.0°F6.7°C 72% 1.4 mph WSW2.3 kmh WSW 2.2 mph3.5 kmh 30.08 in1018.6 mb 0.00 in0.0 mm 0.00 in0.0 mm 0.01 in0.3 mm
07:10 PM 52.3°F11.3°C 43.6°F6.4°C 72% 0.6 mph SE1.0 kmh SE 1.6 mph2.6 kmh 30.08 in1018.6 mb 0.00 in0.0 mm 0.00 in0.0 mm 0.01 in0.3 mm
07:15 PM 52.0°F11.1°C 43.4°F6.3°C 73% 1.0 mph SSE1.6 kmh SSE 2.2 mph3.5 kmh 30.08 in1018.6 mb 0.00 in0.0 mm 0.00 in0.0 mm 0.01 in0.3 mm
07:20 PM 51.7°F10.9°C 43.4°F6.3°C 73% 0.3 mph WNW0.5 kmh WNW 1.6 mph2.6 kmh 30.09 in1019.0 mb 0.00 in0.0 mm 0.00 in0.0 mm 0.01 in0.3 mm
07:25 PM 51.5°F10.8°C 43.3°F6.3°C 73% 0.6 mph S1.0 kmh S 2.2 mph3.5 kmh 30.09 in1019.0 mb 0.00 in0.0 mm 0.00 in0.0 mm 0.01 in0.3 mm
07:30 PM 51.3°F10.7°C 43.3°F6.3°C 74% 0.3 mph W0.5 kmh W 1.6 mph2.6 kmh 30.09 in1019.0 mb 0.00 in0.0 mm 0.00 in0.0 mm 0.01 in0.3 mm
07:35 PM 51.0°F10.6°C 43.0°F6.1°C 74% 1.4 mph N2.3 kmh N 3.1 mph5.0 kmh 30.09 in1019.0 mb 0.00 in0.0 mm 0.00 in0.0 mm 0.01 in0.3 mm
07:40 PM 50.6°F10.3°C 42.7°F5.9°C 74% 1.9 mph NNE3.1 kmh NNE 3.1 mph5.0 kmh 30.09 in1019.0 mb 0.00 in0.0 mm 0.00 in0.0 mm 0.01 in0.3 mm
07:45 PM 50.4°F10.2°C 42.6°F5.9°C 74% 1.2 mph N1.9 kmh N 2.2 mph3.5 kmh 30.09 in1019.0 mb 0.00 in0.0 mm 0.00 in0.0 mm 0.01 in0.3 mm
07:50 PM 50.2°F10.1°C 42.6°F5.9°C 75% 0.9 mph W1.4 kmh W 2.2 mph3.5 kmh 30.10 in1019.3 mb 0.00 in0.0 mm 0.00 in0.0 mm 0.01 in0.3 mm
07:55 PM 50.2°F10.1°C 42.9°F6.1°C 76% 0.8 mph SW1.3 kmh SW 2.2 mph3.5 kmh 30.10 in1019.3 mb 0.00 in0.0 mm 0.00 in0.0 mm 0.01 in0.3 mm
08:00 PM 50.0°F10.0°C 42.8°F6.0°C 76% 1.8 mph S2.9 kmh S 3.1 mph5.0 kmh 30.10 in1019.3 mb 0.00 in0.0 mm 0.00 in0.0 mm 0.01 in0.3 mm
08:05 PM 49.8°F9.9°C 42.6°F5.9°C 76% 0.7 mph W1.1 kmh W 1.6 mph2.6 kmh 30.10 in1019.3 mb 0.00 in0.0 mm 0.00 in0.0 mm 0.01 in0.3 mm
08:10 PM 50.0°F10.0°C 43.1°F6.2°C 77% 1.8 mph SW2.9 kmh SW 3.8 mph6.1 kmh 30.10 in1019.3 mb 0.00 in0.0 mm 0.00 in0.0 mm 0.01 in0.3 mm
08:15 PM 50.3°F10.2°C 43.7°F6.5°C 78% 2.6 mph SSW4.2 kmh SSW 4.5 mph7.2 kmh 30.10 in1019.3 mb 0.00 in0.0 mm 0.00 in0.0 mm 0.01 in0.3 mm
08:20 PM 50.5°F10.3°C 44.1°F6.7°C 79% 2.8 mph SW4.5 kmh SW 4.5 mph7.2 kmh 30.10 in1019.3 mb 0.00 in0.0 mm 0.00 in0.0 mm 0.01 in0.3 mm
08:25 PM 50.7°F10.4°C 44.4°F6.9°C 79% 2.6 mph SW4.2 kmh SW 4.5 mph7.2 kmh 30.10 in1019.3 mb 0.00 in0.0 mm 0.00 in0.0 mm 0.01 in0.3 mm
08:30 PM 50.9°F10.5°C 44.7°F7.1°C 79% 2.7 mph SW4.3 kmh SW 6.0 mph9.7 kmh 30.10 in1019.3 mb 0.00 in0.0 mm 0.00 in0.0 mm 0.01 in0.3 mm
08:35 PM 51.2°F10.7°C 45.3°F7.4°C 80% 2.8 mph SSW4.5 kmh SSW 4.5 mph7.2 kmh 30.10 in1019.3 mb 0.00 in0.0 mm 0.00 in0.0 mm 0.01 in0.3 mm
08:40 PM 51.5°F10.8°C 45.5°F7.5°C 80% 1.3 mph SW2.1 kmh SW 3.1 mph5.0 kmh 30.10 in1019.3 mb 0.00 in0.0 mm 0.00 in0.0 mm 0.01 in0.3 mm
08:45 PM 51.7°F10.9°C 45.5°F7.5°C 79% 1.1 mph SW1.8 kmh SW 2.2 mph3.5 kmh 30.10 in1019.3 mb 0.00 in0.0 mm 0.00 in0.0 mm 0.01 in0.3 mm
08:50 PM 51.8°F11.0°C 45.5°F7.5°C 79% 1.9 mph S3.1 kmh S 3.8 mph6.1 kmh 30.09 in1019.0 mb 0.00 in0.0 mm 0.00 in0.0 mm 0.01 in0.3 mm
08:55 PM 52.1°F11.2°C 45.7°F7.6°C 79% 1.9 mph SSE3.1 kmh SSE 3.8 mph6.1 kmh 30.10 in1019.3 mb 0.00 in0.0 mm 0.00 in0.0 mm 0.01 in0.3 mm
09:00 PM 52.3°F11.3°C 46.0°F7.8°C 79% 1.1 mph ESE1.8 kmh ESE 2.2 mph3.5 kmh 30.09 in1019.0 mb 0.00 in0.0 mm 0.00 in0.0 mm 0.01 in0.3 mm
09:05 PM 52.5°F11.4°C 46.2°F7.9°C 79% 1.6 mph SW2.6 kmh SW 3.1 mph5.0 kmh 30.10 in1019.3 mb 0.00 in0.0 mm 0.00 in0.0 mm 0.01 in0.3 mm
09:10 PM 52.7°F11.5°C 46.0°F7.8°C 78% 1.4 mph W2.3 kmh W 3.1 mph5.0 kmh 30.10 in1019.3 mb 0.00 in0.0 mm 0.00 in0.0 mm 0.01 in0.3 mm
09:15 PM 52.6°F11.4°C 45.4°F7.4°C 77% 1.5 mph WSW2.4 kmh WSW 4.5 mph7.2 kmh 30.10 in1019.3 mb 0.00 in0.0 mm 0.00 in0.0 mm 0.01 in0.3 mm
09:20 PM 52.1°F11.2°C 44.5°F6.9°C 75% 1.4 mph S2.3 kmh S 4.5 mph7.2 kmh 30.11 in1019.6 mb 0.00 in0.0 mm 0.00 in0.0 mm 0.01 in0.3 mm
09:25 PM 51.6°F10.9°C 43.8°F6.6°C 75% 1.2 mph SSW1.9 kmh SSW 2.2 mph3.5 kmh 30.10 in1019.3 mb 0.00 in0.0 mm 0.00 in0.0 mm 0.01 in0.3 mm
09:30 PM 51.2°F10.7°C 43.4°F6.3°C 75% 0.2 mph 0.3 kmh 1.6 mph2.6 kmh 30.10 in1019.3 mb 0.00 in0.0 mm 0.00 in0.0 mm 0.01 in0.3 mm
09:35 PM 50.9°F10.5°C 43.2°F6.2°C 75% 0.1 mph W0.2 kmh W 1.6 mph2.6 kmh 30.10 in1019.3 mb 0.00 in0.0 mm 0.00 in0.0 mm 0.01 in0.3 mm
09:40 PM 50.6°F10.3°C 42.9°F6.1°C 75% 0.9 mph SW1.4 kmh SW 2.2 mph3.5 kmh 30.11 in1019.6 mb 0.00 in0.0 mm 0.00 in0.0 mm 0.01 in0.3 mm
09:45 PM 50.2°F10.1°C 42.5°F5.8°C 75% 0.6 mph SW1.0 kmh SW 1.6 mph2.6 kmh 30.11 in1019.6 mb 0.00 in0.0 mm 0.00 in0.0 mm 0.01 in0.3 mm
09:50 PM 49.7°F9.8°C 42.1°F5.6°C 75% 0.2 mph W0.3 kmh W 0.7 mph1.1 kmh 30.11 in1019.6 mb 0.00 in0.0 mm 0.00 in0.0 mm 0.01 in0.3 mm
09:55 PM 49.4°F9.7°C 41.8°F5.4°C 75% 0.1 mph W0.2 kmh W 0.7 mph1.1 kmh 30.11 in1019.6 mb 0.00 in0.0 mm 0.00 in0.0 mm 0.01 in0.3 mm
10:00 PM 49.1°F9.5°C 41.5°F5.3°C 75% 0.8 mph W1.3 kmh W 3.1 mph5.0 kmh 30.11 in1019.6 mb 0.00 in0.0 mm 0.00 in0.0 mm 0.01 in0.3 mm
10:05 PM 48.9°F9.4°C 41.3°F5.2°C 75% 2.2 mph W3.5 kmh W 3.1 mph5.0 kmh 30.11 in1019.6 mb 0.00 in0.0 mm 0.00 in0.0 mm 0.01 in0.3 mm
10:10 PM 48.8°F9.3°C 41.5°F5.3°C 76% 2.5 mph WSW4.0 kmh WSW 3.8 mph6.1 kmh 30.11 in1019.6 mb 0.00 in0.0 mm 0.00 in0.0 mm 0.01 in0.3 mm
10:15 PM 48.5°F9.2°C 41.7°F5.4°C 77% 1.8 mph N2.9 kmh N 3.8 mph6.1 kmh 30.11 in1019.6 mb 0.00 in0.0 mm 0.00 in0.0 mm 0.01 in0.3 mm
10:20 PM 48.3°F9.1°C 41.5°F5.3°C 77% 1.9 mph NNW3.1 kmh NNW 3.1 mph5.0 kmh 30.11 in1019.6 mb 0.00 in0.0 mm 0.00 in0.0 mm 0.01 in0.3 mm
10:25 PM 48.2°F9.0°C 41.6°F5.3°C 78% 2.2 mph 3.5 kmh 3.8 mph6.1 kmh 30.11 in1019.6 mb 0.00 in0.0 mm 0.00 in0.0 mm 0.01 in0.3 mm
10:30 PM 48.2°F9.0°C 41.8°F5.4°C 79% 0.3 mph NW0.5 kmh NW 1.6 mph2.6 kmh 30.12 in1020.0 mb 0.00 in0.0 mm 0.00 in0.0 mm 0.01 in0.3 mm
10:35 PM 48.0°F8.9°C 41.8°F5.4°C 79% 0.6 mph N1.0 kmh N 2.2 mph3.5 kmh 30.11 in1019.6 mb 0.00 in0.0 mm 0.00 in0.0 mm 0.01 in0.3 mm
10:40 PM 47.9°F8.8°C 41.7°F5.4°C 79% 1.8 mph N2.9 kmh N 3.1 mph5.0 kmh 30.11 in1019.6 mb 0.00 in0.0 mm 0.00 in0.0 mm 0.01 in0.3 mm
10:45 PM 47.6°F8.7°C 41.4°F5.2°C 79% 1.9 mph N3.1 kmh N 3.1 mph5.0 kmh 30.11 in1019.6 mb 0.00 in0.0 mm 0.00 in0.0 mm 0.01 in0.3 mm
10:50 PM 47.3°F8.5°C 40.8°F4.9°C 78% 1.8 mph NNE2.9 kmh NNE 4.5 mph7.2 kmh 30.11 in1019.6 mb 0.00 in0.0 mm 0.00 in0.0 mm 0.01 in0.3 mm
10:55 PM 46.9°F8.3°C 40.4°F4.7°C 78% 1.7 mph W2.7 kmh W 3.8 mph6.1 kmh 30.11 in1019.6 mb 0.00 in0.0 mm 0.00 in0.0 mm 0.01 in0.3 mm
11:00 PM 46.7°F8.2°C 40.2°F4.6°C 78% 0.1 mph 0.2 kmh 1.6 mph2.6 kmh 30.11 in1019.6 mb 0.00 in0.0 mm 0.00 in0.0 mm 0.01 in0.3 mm
11:05 PM 46.5°F8.1°C 40.0°F4.4°C 78% 0.5 mph NNW0.8 kmh NNW 2.2 mph3.5 kmh 30.12 in1020.0 mb 0.00 in0.0 mm 0.00 in0.0 mm 0.01 in0.3 mm
11:10 PM 46.2°F7.9°C 39.7°F4.3°C 78% 2.2 mph NE3.5 kmh NE 3.1 mph5.0 kmh 30.12 in1020.0 mb 0.00 in0.0 mm 0.00 in0.0 mm 0.01 in0.3 mm
11:15 PM 46.0°F7.8°C 39.8°F4.3°C 79% 2.2 mph NE3.5 kmh NE 3.8 mph6.1 kmh 30.11 in1019.6 mb 0.00 in0.0 mm 0.00 in0.0 mm 0.01 in0.3 mm
11:20 PM 46.1°F7.8°C 40.0°F4.4°C 79% 1.9 mph NE3.1 kmh NE 3.8 mph6.1 kmh 30.11 in1019.6 mb 0.00 in0.0 mm 0.00 in0.0 mm 0.01 in0.3 mm
11:25 PM 46.2°F7.9°C 40.4°F4.7°C 80% 2.4 mph NE3.9 kmh NE 3.8 mph6.1 kmh 30.11 in1019.6 mb 0.00 in0.0 mm 0.00 in0.0 mm 0.01 in0.3 mm
11:30 PM 46.3°F7.9°C 40.5°F4.7°C 80% 2.8 mph NE4.5 kmh NE 4.5 mph7.2 kmh 30.11 in1019.6 mb 0.00 in0.0 mm 0.00 in0.0 mm 0.01 in0.3 mm
11:35 PM 46.2°F7.9°C 40.6°F4.8°C 80% 1.6 mph NE2.6 kmh NE 3.8 mph6.1 kmh 30.11 in1019.6 mb 0.00 in0.0 mm 0.00 in0.0 mm 0.01 in0.3 mm
11:40 PM 46.1°F7.8°C 40.6°F4.8°C 81% 0.4 mph 0.6 kmh 1.6 mph2.6 kmh 30.11 in1019.6 mb 0.00 in0.0 mm 0.00 in0.0 mm 0.01 in0.3 mm
11:45 PM 46.0°F7.8°C 40.5°F4.7°C 81% 0.4 mph WNW0.6 kmh WNW 1.6 mph2.6 kmh 30.11 in1019.6 mb 0.00 in0.0 mm 0.00 in0.0 mm 0.01 in0.3 mm
11:50 PM 45.9°F7.7°C 40.4°F4.7°C 81% 1.8 mph NE2.9 kmh NE 3.1 mph5.0 kmh 30.11 in1019.6 mb 0.00 in0.0 mm 0.00 in0.0 mm 0.01 in0.3 mm
11:55 PM 45.9°F7.7°C 40.4°F4.7°C 81% 0.4 mph 0.6 kmh 1.6 mph2.6 kmh 30.11 in1019.6 mb 0.00 in0.0 mm 0.00 in0.0 mm 0.01 in0.3 mm